Time;durP1;ratioP1;P1;durP2;ratioP2;P2;SDS_P1;SDS_P2;PMS_P1;PMS_P2;Temp;Humidity;BMP_temperature;BMP_pressure;BME280_temperature;BME280_humidity;BME280_pressure;Samples;Min_cycle;Max_cycle;Signal;HPM_P1;HPM_P2
2021/04/01 00:02:28;;;;;;;55.75;38.58;;;;;;;4.92;100.00;101620.03;5014900;28;20033;-72
2021/04/01 00:04:54;;;;;;;52.50;37.25;;;;;;;5.08;100.00;101623.84;5012078;28;20030;-72
2021/04/01 00:07:20;;;;;;;49.90;37.75;;;;;;;5.13;100.00;101619.78;5010796;28;20037;-72
2021/04/01 00:09:45;;;;;;;49.83;35.83;;;;;;;4.92;100.00;101614.78;5009282;28;20023;-72
2021/04/01 00:12:11;;;;;;;46.65;35.28;;;;;;;5.15;100.00;101620.47;5018363;28;20072;-72
2021/04/01 00:14:36;;;;;;;48.78;34.95;;;;;;;5.04;100.00;101620.69;5010766;28;20022;-72
2021/04/01 00:17:03;;;;;;;45.97;36.60;;;;;;;5.13;100.00;101608.44;5010447;28;20180;-72
2021/04/01 00:19:28;;;;;;;50.53;37.53;;;;;;;4.71;100.00;101616.81;5015877;28;20042;-72
2021/04/01 00:21:54;;;;;;;51.10;37.28;;;;;;;4.93;100.00;101610.34;5013330;28;20022;-72
2021/04/01 00:24:19;;;;;;;52.58;38.90;;;;;;;4.82;100.00;101608.75;5014216;28;20124;-72
2021/04/01 00:26:45;;;;;;;62.25;41.20;;;;;;;5.04;100.00;101618.03;5015450;28;20034;-72
2021/04/01 00:29:10;;;;;;;52.10;39.92;;;;;;;4.63;100.00;101614.94;5021355;28;20108;-72
2021/04/01 00:31:36;;;;;;;56.70;39.65;;;;;;;4.80;100.00;101615.94;5012112;28;20053;-72
2021/04/01 00:34:02;;;;;;;64.78;42.55;;;;;;;5.04;100.00;101612.78;5017500;28;20469;-72
2021/04/01 00:36:28;;;;;;;60.78;40.47;;;;;;;4.54;100.00;101606.09;5007812;28;20026;-72
2021/04/01 00:38:53;;;;;;;68.72;43.35;;;;;;;4.43;100.00;101608.91;5010567;28;20030;-72
2021/04/01 00:41:19;;;;;;;62.05;40.28;;;;;;;4.48;100.00;101614.56;5009064;28;20160;-72
2021/04/01 00:43:45;;;;;;;55.72;38.03;;;;;;;4.27;100.00;101616.59;5019981;28;20117;-72
2021/04/01 00:46:10;;;;;;;52.05;37.10;;;;;;;4.43;100.00;101629.94;5009002;28;20029;-71
2021/04/01 00:48:36;;;;;;;53.45;37.95;;;;;;;4.44;100.00;101625.50;5010514;28;20068;-72
2021/04/01 00:51:01;;;;;;;49.47;37.28;;;;;;;4.25;100.00;101634.31;5012710;28;20025;-72
2021/04/01 00:53:27;;;;;;;55.00;39.05;;;;;;;3.77;100.00;101625.50;5002171;28;20029;-72
2021/04/01 00:55:52;;;;;;;57.88;38.55;;;;;;;3.77;100.00;101617.63;5012408;28;20371;-72
2021/04/01 00:58:18;;;;;;;56.85;39.40;;;;;;;3.99;100.00;101619.09;5008729;28;20029;-72
2021/04/01 01:00:43;;;;;;;66.95;42.33;;;;;;;3.95;100.00;101620.38;5031251;28;20026;-72
2021/04/01 01:03:09;;;;;;;58.67;39.35;;;;;;;3.80;100.00;101619.97;5026670;28;20026;-72
2021/04/01 01:05:35;;;;;;;55.25;38.35;;;;;;;3.64;100.00;101610.03;5007871;28;20073;-72
2021/04/01 01:08:02;;;;;;;58.78;38.10;;;;;;;3.54;100.00;101603.94;5008925;28;20034;-72
2021/04/01 01:10:30;;;;;;;64.60;39.65;;;;;;;3.52;100.00;101600.63;5007012;28;20029;-72
2021/04/01 01:13:01;;;;;;;60.45;38.15;;;;;;;3.61;100.00;101601.59;5028308;28;20488;-72
2021/04/01 01:15:27;;;;;;;53.80;37.33;;;;;;;3.57;100.00;101600.19;5014666;28;20039;-71
2021/04/01 01:17:54;;;;;;;58.75;36.55;;;;;;;3.27;100.00;101598.50;5012547;28;20030;-72
2021/04/01 01:20:25;;;;;;;59.80;38.42;;;;;;;3.21;100.00;101605.16;5007172;28;20048;-72
2021/04/01 01:22:51;;;;;;;62.80;39.58;;;;;;;3.36;100.00;101592.44;5007134;28;20029;-72
2021/04/01 01:25:19;;;;;;;74.07;41.47;;;;;;;2.99;100.00;101593.09;5018168;28;20064;-72
2021/04/01 01:27:44;;;;;;;69.68;41.55;;;;;;;3.40;100.00;101592.03;5031377;28;20036;-71
2021/04/01 01:30:13;;;;;;;59.00;37.83;;;;;;;3.20;100.00;101593.81;5012082;28;20033;-72
2021/04/01 01:32:42;;;;;;;61.38;38.22;;;;;;;3.34;100.00;101586.53;5013232;28;20030;-72
2021/04/01 01:35:40;;;;;;;61.38;37.97;;;;;;;3.05;100.00;101595.16;5004177;28;20026;-72
2021/04/01 01:38:08;;;;;;;64.28;39.78;;;;;;;3.00;100.00;101591.31;5002337;28;20049;-74
2021/04/01 01:40:35;;;;;;;58.90;37.53;;;;;;;2.47;100.00;101600.25;5030136;28;20029;-74
2021/04/01 01:43:03;;;;;;;63.83;40.95;;;;;;;2.20;100.00;101601.63;5018982;28;20052;-74
2021/04/01 01:45:29;;;;;;;66.43;38.50;;;;;;;2.22;100.00;101594.47;5009337;28;20109;-74
2021/04/01 01:47:55;;;;;;;62.40;38.05;;;;;;;2.55;100.00;101597.81;5010868;28;20113;-73
2021/04/01 01:50:23;;;;;;;62.80;37.45;;;;;;;2.63;100.00;101594.50;5007259;28;20038;-74
2021/04/01 01:52:48;;;;;;;67.00;40.63;;;;;;;2.45;100.00;101589.91;5002045;28;20026;-73
2021/04/01 01:55:14;;;;;;;72.68;42.42;;;;;;;2.65;100.00;101590.78;5015078;28;20038;-74
2021/04/01 01:57:40;;;;;;;69.38;42.35;;;;;;;2.69;100.00;101586.94;5010202;28;20034;-74
2021/04/01 02:03:28;;;;;;;78.30;47.53;;;;;;;2.39;100.00;101594.81;5014026;28;20509;-74
2021/04/01 02:05:53;;;;;;;75.30;42.03;;;;;;;1.88;100.00;101601.72;5023559;28;20025;-73
2021/04/01 02:08:19;;;;;;;72.13;42.58;;;;;;;2.14;100.00;101596.06;5016742;28;20022;-74
2021/04/01 02:10:50;;;;;;;66.07;42.80;;;;;;;2.27;100.00;101605.41;5023722;28;20037;-73
2021/04/01 02:13:22;;;;;;;64.85;40.40;;;;;;;2.09;100.00;101604.34;5011416;28;20041;-73
2021/04/01 02:15:48;;;;;;;68.53;41.40;;;;;;;1.89;100.00;101610.41;5000787;28;20120;-73
2021/04/01 02:18:20;;;;;;;68.10;41.03;;;;;;;1.91;100.00;101609.31;5023772;28;20115;-73
2021/04/01 02:20:49;;;;;;;70.60;41.15;;;;;;;1.88;100.00;101608.75;5003591;28;20084;-73
2021/04/01 02:23:16;;;;;;;70.60;40.72;;;;;;;1.91;100.00;101603.25;5007964;28;20026;-73
2021/04/01 02:25:43;;;;;;;60.97;39.28;;;;;;;2.12;100.00;101611.94;5009801;28;20025;-73
2021/04/01 02:28:09;;;;;;;61.40;38.72;;;;;;;1.95;100.00;101608.09;5011867;28;20036;-73
2021/04/01 02:30:36;;;;;;;65.88;39.97;;;;;;;1.84;100.00;101611.59;5003961;28;20727;-73
2021/04/01 02:33:02;;;;;;;69.00;40.50;;;;;;;2.07;100.00;101611.50;5035724;28;20659;-73
2021/04/01 02:35:28;;;;;;;76.05;42.47;;;;;;;1.84;100.00;101621.25;5008549;28;20107;-73
2021/04/01 02:37:54;;;;;;;69.22;40.10;;;;;;;2.02;100.00;101624.97;4998968;28;20234;-73
2021/04/01 02:40:19;;;;;;;71.80;42.95;;;;;;;2.15;100.00;101619.53;5011438;28;20030;-73
2021/04/01 02:42:45;;;;;;;58.33;38.10;;;;;;;1.81;100.00;101618.88;5006460;28;20064;-73
2021/04/01 02:45:11;;;;;;;67.43;40.00;;;;;;;1.89;100.00;101620.88;5012628;28;20026;-73
2021/04/01 02:47:37;;;;;;;62.60;38.38;;;;;;;1.91;100.00;101622.41;5012212;28;20395;-73
2021/04/01 02:50:05;;;;;;;61.75;38.60;;;;;;;2.00;100.00;101626.06;5019239;28;20033;-73
2021/04/01 02:52:30;;;;;;;62.20;38.03;;;;;;;1.70;100.00;101617.16;5032519;28;20416;-73
2021/04/01 02:54:55;;;;;;;66.28;38.50;;;;;;;1.82;100.00;101620.56;5016305;28;20063;-73
2021/04/01 02:57:21;;;;;;;60.45;37.38;;;;;;;1.81;100.00;101631.97;5028765;28;20348;-73
2021/04/01 02:59:47;;;;;;;63.35;38.50;;;;;;;1.63;100.00;101623.84;5020639;28;20132;-73
2021/04/01 03:02:14;;;;;;;64.70;41.15;;;;;;;1.86;100.00;101635.06;5019096;28;20132;-73
2021/04/01 03:04:40;;;;;;;62.72;39.33;;;;;;;1.72;100.00;101632.75;5016516;28;20030;-73
2021/04/01 03:07:06;;;;;;;63.30;37.85;;;;;;;1.58;100.00;101626.03;5015000;28;20045;-73
2021/04/01 03:09:32;;;;;;;65.93;39.95;;;;;;;1.61;100.00;101636.25;5012898;28;20050;-73
2021/04/01 03:11:57;;;;;;;69.22;37.90;;;;;;;1.81;100.00;101635.44;5018158;28;20045;-73
2021/04/01 03:14:23;;;;;;;61.85;38.33;;;;;;;1.91;100.00;101632.06;5018434;28;20489;-73
2021/04/01 03:16:49;;;;;;;57.13;38.63;;;;;;;1.75;100.00;101635.09;5022119;28;20033;-73
2021/04/01 03:19:14;;;;;;;65.15;41.15;;;;;;;1.78;100.00;101633.06;5022504;28;20026;-73
2021/04/01 03:21:41;;;;;;;58.25;36.33;;;;;;;1.51;100.00;101633.56;5024268;28;20120;-73
2021/04/01 03:24:07;;;;;;;59.08;37.03;;;;;;;1.51;100.00;101630.09;5021680;28;20026;-73
2021/04/01 03:26:32;;;;;;;56.35;34.80;;;;;;;1.55;100.00;101636.75;5017215;28;20013;-73
2021/04/01 03:28:57;;;;;;;54.33;33.33;;;;;;;1.48;100.00;101639.00;5022541;28;20029;-73
2021/04/01 03:31:23;;;;;;;59.70;37.55;;;;;;;1.46;100.00;101638.31;5017747;28;20022;-73
2021/04/01 03:33:48;;;;;;;59.45;36.20;;;;;;;1.34;100.00;101637.53;5019968;28;20367;-73
2021/04/01 03:36:14;;;;;;;60.53;36.70;;;;;;;1.26;100.00;101641.72;5023784;28;20108;-73
2021/04/01 03:38:44;;;;;;;63.13;37.83;;;;;;;0.93;100.00;101643.41;5045014;28;20033;-73
2021/04/01 03:41:09;;;;;;;67.45;40.33;;;;;;;0.97;100.00;101644.00;5024352;28;20125;-73
2021/04/01 03:43:35;;;;;;;66.95;39.10;;;;;;;1.19;100.00;101651.84;5020544;28;20431;-73
2021/04/01 03:46:00;;;;;;;61.80;38.22;;;;;;;1.24;100.00;101646.22;5020460;28;20025;-73
2021/04/01 03:48:25;;;;;;;59.72;35.67;;;;;;;1.14;100.00;101649.56;5020101;28;20018;-73
2021/04/01 03:50:51;;;;;;;56.95;35.53;;;;;;;0.99;100.00;101644.72;5020660;28;20091;-73
2021/04/01 03:53:16;;;;;;;58.58;35.58;;;;;;;1.09;100.00;101643.03;5026409;28;20042;-73
2021/04/01 03:55:42;;;;;;;56.55;35.28;;;;;;;0.93;100.00;101646.03;5021467;28;20029;-73
2021/04/01 04:06:02;;;;;;;53.13;34.22;;;;;;;0.62;100.00;101648.41;5008755;28;20108;-73
2021/04/01 04:14:10;;;;;;;64.20;35.22;;;;;;;0.64;100.00;101651.75;5015267;28;20034;-73
2021/04/01 04:16:21;;;;;;;64.50;35.33;;;;;;;0.79;100.00;101656.75;5005203;28;20042;-73
2021/04/01 04:18:47;;;;;;;72.20;39.15;;;;;;;0.84;100.00;101660.66;5015186;28;20041;-73
2021/04/01 04:21:13;;;;;;;66.45;37.70;;;;;;;0.95;100.00;101661.63;5014845;28;20104;-73
2021/04/01 04:23:42;;;;;;;58.10;34.67;;;;;;;0.75;100.00;101665.78;5017714;28;20029;-73
2021/04/01 04:26:08;;;;;;;62.75;36.65;;;;;;;0.73;100.00;101658.06;5022712;28;20056;-73
2021/04/01 04:28:35;;;;;;;81.63;47.33;;;;;;;0.84;100.00;101665.88;5022109;28;20026;-73
2021/04/01 04:31:01;;;;;;;71.70;43.08;;;;;;;0.98;100.00;101661.38;5019268;28;20026;-73
2021/04/01 04:33:28;;;;;;;74.70;42.72;;;;;;;0.76;100.00;101657.81;5011315;28;20033;-73
2021/04/01 04:35:54;;;;;;;69.45;42.28;;;;;;;0.97;100.00;101659.69;5018253;28;20060;-73
2021/04/01 04:38:19;;;;;;;70.45;39.83;;;;;;;1.18;100.00;101657.19;5002466;28;20554;-73
2021/04/01 04:40:45;;;;;;;71.70;43.80;;;;;;;1.31;100.00;101661.31;5008993;28;20442;-73
2021/04/01 04:43:11;;;;;;;88.97;48.38;;;;;;;1.31;100.00;101673.59;5011496;28;20029;-73
2021/04/01 04:45:36;;;;;;;87.95;49.78;;;;;;;1.45;100.00;101669.84;5019209;28;20029;-73
2021/04/01 04:48:02;;;;;;;79.43;45.85;;;;;;;1.53;100.00;101663.03;5018156;28;20033;-73
2021/04/01 04:50:27;;;;;;;77.03;43.17;;;;;;;1.68;100.00;101668.00;5014043;28;20034;-73
2021/04/01 04:52:53;;;;;;;69.80;42.63;;;;;;;1.87;100.00;101668.16;5000201;28;20061;-73
2021/04/01 04:55:19;;;;;;;81.30;47.88;;;;;;;1.95;100.00;101673.59;5010167;28;20040;-73
2021/04/01 05:05:28;;;;;;;77.00;46.38;;;;;;;2.11;100.00;101680.19;5011299;28;20044;-73
2021/04/01 05:07:54;;;;;;;92.50;51.92;;;;;;;2.19;100.00;101678.59;5014123;28;20730;-73
2021/04/01 05:10:19;;;;;;;78.55;46.55;;;;;;;2.34;100.00;101683.53;5013014;28;20485;-73
2021/04/01 05:12:48;;;;;;;72.80;46.03;;;;;;;2.56;100.00;101680.75;5016511;28;20053;-73
2021/04/01 05:15:14;;;;;;;86.53;52.90;;;;;;;2.57;100.00;101677.16;5012781;28;20022;-73
2021/04/01 05:17:40;;;;;;;75.38;48.85;;;;;;;2.75;100.00;101677.38;5016789;28;20026;-73
2021/04/01 05:20:07;;;;;;;58.75;41.83;;;;;;;2.99;100.00;101674.44;5015329;28;20037;-73
2021/04/01 05:25:09;;;;;;;57.38;42.40;;;;;;;3.33;100.00;101674.97;5010865;28;20044;-73
2021/04/01 05:27:48;;;;;;;54.30;41.65;;;;;;;3.11;100.00;101664.69;5006941;28;20061;-73
2021/04/01 05:30:16;;;;;;;42.40;36.33;;;;;;;3.53;100.00;101670.56;5017712;28;20029;-73
2021/04/01 05:32:43;;;;;;;43.15;35.78;;;;;;;3.95;100.00;101661.59;5009727;28;20064;-73
2021/04/01 05:35:14;;;;;;;38.72;34.78;;;;;;;3.95;100.00;101665.06;5004596;28;20386;-73
2021/04/01 05:37:39;;;;;;;40.90;36.50;;;;;;;4.02;100.00;101662.69;5024229;28;20032;-73
2021/04/01 05:40:06;;;;;;;45.67;36.70;;;;;;;4.16;100.00;101661.44;5012545;28;20112;-73
2021/04/01 05:42:35;;;;;;;50.10;39.45;;;;;;;3.99;100.00;101663.78;5013228;28;20022;-73
2021/04/01 05:47:37;;;;;;;46.58;39.42;;;;;;;4.57;100.00;101661.06;5013846;28;20345;-73
2021/04/01 05:58:19;;;;;;;37.35;34.38;;;;;;;5.51;100.00;101657.41;5012909;28;20168;-74
2021/04/01 06:00:57;;;;;;;35.65;32.75;;;;;;;5.68;100.00;101659.19;5008831;28;20045;-73
2021/04/01 06:04:08;;;;;;;37.10;34.30;;;;;;;5.73;100.00;101658.75;5008612;28;20030;-73
2021/04/01 06:09:04;;;;;;;36.45;33.45;;;;;;;6.04;100.00;101651.28;5005108;28;20373;-73
2021/04/01 06:11:30;;;;;;;36.50;33.50;;;;;;;6.09;100.00;101649.03;4997264;28;20399;-73
2021/04/01 06:14:10;;;;;;;37.88;34.80;;;;;;;6.14;100.00;101651.19;5010985;28;20030;-73
2021/04/01 06:16:41;;;;;;;39.17;36.03;;;;;;;6.24;100.00;101654.59;5021976;28;20042;-73
2021/04/01 06:19:09;;;;;;;37.20;34.30;;;;;;;6.64;100.00;101663.72;5007708;28;20442;-73
2021/04/01 06:21:44;;;;;;;35.88;33.00;;;;;;;6.57;100.00;101663.53;5018530;28;20248;-71
2021/04/01 06:24:25;;;;;;;35.55;32.90;;;;;;;6.50;100.00;101661.66;4999438;28;20104;-71
2021/04/01 06:27:01;;;;;;;35.95;33.30;;;;;;;6.59;100.00;101656.25;5003827;28;20383;-70
2021/04/01 06:29:29;;;;;;;37.28;34.28;;;;;;;6.67;100.00;101657.31;5003165;28;20120;-71
2021/04/01 06:31:56;;;;;;;34.85;32.35;;;;;;;6.58;100.00;101649.34;5007094;28;20440;-71
2021/04/01 06:34:40;;;;;;;37.05;34.20;;;;;;;6.99;100.00;101654.81;4997083;28;20097;-71
2021/04/01 06:37:18;;;;;;;36.72;33.83;;;;;;;7.01;100.00;101657.28;5007180;28;20038;-71
2021/04/01 06:39:44;;;;;;;34.53;32.05;;;;;;;7.43;100.00;101656.44;5012500;28;20076;-71
2021/04/01 06:42:28;;;;;;;36.45;33.90;;;;;;;7.54;100.00;101659.59;5007076;28;20180;-71
2021/04/01 06:44:59;;;;;;;37.58;34.92;;;;;;;7.70;100.00;101660.59;5019385;28;20427;-71
2021/04/01 06:47:27;;;;;;;34.42;32.13;;;;;;;7.61;100.00;101662.41;5011983;28;20068;-71
2021/04/01 06:50:17;;;;;;;35.65;32.90;;;;;;;7.77;100.00;101658.94;5014092;28;20459;-71
2021/04/01 06:52:51;;;;;;;34.05;31.58;;;;;;;8.02;100.00;101659.78;5011633;28;20029;-73
2021/04/01 07:03:02;;;;;;;34.67;32.38;;;;;;;8.24;100.00;101659.09;5007434;28;20034;-73
2021/04/01 07:05:41;;;;;;;35.90;33.60;;;;;;;8.53;100.00;101654.28;5010285;28;20620;-73
2021/04/01 07:08:09;;;;;;;35.85;33.45;;;;;;;8.57;100.00;101658.25;5006127;28;20022;-73
2021/04/01 07:11:07;;;;;;;35.97;33.03;;;;;;;8.95;100.00;101673.31;5009353;28;20031;-73
2021/04/01 07:13:42;;;;;;;36.00;33.15;;;;;;;8.63;100.00;101663.69;5008931;28;20423;-71
2021/04/01 07:16:38;;;;;;;35.88;33.55;;;;;;;9.17;100.00;101660.34;5002890;28;20116;-71
2021/04/01 07:46:50;;;;;;;34.65;32.45;;;;;;;10.80;100.00;101636.88;5006523;28;20088;-71
2021/04/01 07:49:21;;;;;;;32.42;30.42;;;;;;;11.12;100.00;101640.16;5008336;28;20026;-71
2021/04/01 07:52:00;;;;;;;32.20;30.30;;;;;;;11.17;100.00;101643.06;5027250;28;20054;-71
2021/04/01 07:54:40;;;;;;;35.80;33.33;;;;;;;11.42;100.00;101643.53;5025178;28;20061;-71
2021/04/01 07:58:19;;;;;;;33.33;31.20;;;;;;;11.45;89.95;101638.66;5012429;28;20025;-71
2021/04/01 08:05:28;;;;;;;33.10;30.83;;;;;;;12.20;83.34;101633.00;5005569;28;20371;-72
2021/04/01 08:08:03;;;;;;;33.38;31.27;;;;;;;11.68;87.91;101635.84;5010038;28;20390;-73
2021/04/01 08:10:32;;;;;;;32.95;30.75;;;;;;;11.32;100.00;101646.53;5013779;28;20022;-73
2021/04/01 08:13:04;;;;;;;32.80;30.58;;;;;;;11.45;95.86;101637.84;5012156;28;20041;-73
2021/04/01 08:15:47;;;;;;;33.42;31.17;;;;;;;11.29;94.97;101635.44;5004500;28;20026;-73
2021/04/01 08:18:28;;;;;;;34.28;31.73;;;;;;;11.92;98.69;101636.44;5026570;28;20459;-73
2021/04/01 08:20:58;;;;;;;33.88;31.50;;;;;;;12.84;95.83;101636.22;5008535;28;20526;-73
2021/04/01 08:23:30;;;;;;;33.03;31.00;;;;;;;12.21;97.54;101635.47;5005742;28;20029;-73
2021/04/01 08:26:38;;;;;;;34.53;32.10;;;;;;;11.93;100.00;101632.78;5010872;28;20462;-73
2021/04/01 08:29:52;;;;;;;33.83;31.60;;;;;;;12.51;100.00;101638.72;5006663;28;20026;-73
2021/04/01 08:34:49;;;;;;;34.28;32.08;;;;;;;13.32;90.75;101640.75;5005072;28;20111;-73
2021/04/01 08:37:16;;;;;;;35.00;32.70;;;;;;;13.16;92.53;101639.25;5009352;28;20030;-73
2021/04/01 08:39:44;;;;;;;34.45;32.35;;;;;;;13.14;89.11;101635.13;5008771;28;20026;-73
2021/04/01 08:42:29;;;;;;;35.50;33.20;;;;;;;12.76;84.49;101625.72;4998262;28;20084;-73
2021/04/01 08:44:57;;;;;;;34.78;32.47;;;;;;;12.98;89.12;101626.44;5015002;28;20492;-73
2021/04/01 08:47:35;;;;;;;33.30;31.25;;;;;;;13.06;85.34;101620.09;5010693;28;20045;-73
2021/04/01 08:50:32;;;;;;;33.00;30.92;;;;;;;14.08;76.16;101618.22;5010657;28;20041;-73
2021/04/01 08:53:18;;;;;;;31.92;29.92;;;;;;;14.25;73.55;101622.09;5004101;28;20640;-73
2021/04/01 08:56:22;;;;;;;31.85;29.95;;;;;;;13.27;80.27;101611.97;5005064;28;20111;-73
2021/04/01 08:58:50;;;;;;;31.52;29.52;;;;;;;13.65;85.86;101614.09;4988321;28;20463;-73
2021/04/01 09:01:18;;;;;;;32.20;30.17;;;;;;;13.60;78.50;101611.22;5004879;28;20065;-73
2021/04/01 09:03:47;;;;;;;32.20;30.10;;;;;;;14.53;73.40;101613.03;5001852;28;20029;-73
2021/04/01 09:06:16;;;;;;;32.05;29.95;;;;;;;13.46;64.98;101612.22;5013341;28;20463;-73
2021/04/01 09:09:00;;;;;;;31.75;29.88;;;;;;;14.89;75.54;101605.28;5007545;28;20029;-73
2021/04/01 09:11:37;;;;;;;34.22;31.75;;;;;;;14.63;68.81;101610.72;5027213;28;20042;-73
2021/04/01 09:14:14;;;;;;;33.55;31.45;;;;;;;13.95;72.84;101595.00;5005213;28;20022;-73
2021/04/01 09:16:42;;;;;;;32.40;30.63;;;;;;;14.84;58.79;101593.56;5005760;28;20021;-73
2021/04/01 09:19:11;;;;;;;33.42;31.63;;;;;;;15.39;63.66;101598.41;5008848;28;20026;-73
2021/04/01 09:21:39;;;;;;;32.60;30.73;;;;;;;16.19;65.46;101583.34;5008014;28;20050;-73
2021/04/01 09:24:10;;;;;;;30.90;29.02;;;;;;;15.82;58.93;101600.38;5013423;28;20120;-73
2021/04/01 09:26:36;;;;;;;32.25;30.13;;;;;;;13.98;76.49;101582.06;5011515;28;20031;-73
2021/04/01 09:29:06;;;;;;;32.30;30.30;;;;;;;14.59;62.73;101575.56;5006119;28;20052;-73
2021/04/01 09:31:44;;;;;;;32.35;30.35;;;;;;;15.74;53.59;101580.88;5011633;28;20448;-73
2021/04/01 09:34:10;;;;;;;31.92;30.02;;;;;;;15.65;58.86;101581.34;5013678;28;20418;-73
2021/04/01 09:36:42;;;;;;;32.20;30.17;;;;;;;15.18;62.79;101576.28;5011750;28;20053;-73
2021/04/01 09:39:25;;;;;;;31.05;29.25;;;;;;;14.95;81.25;101567.97;5013273;28;20495;-73
2021/04/01 09:41:56;;;;;;;32.03;30.13;;;;;;;15.43;69.06;101568.31;5012569;28;20046;-74
2021/04/01 09:44:22;;;;;;;32.58;30.60;;;;;;;15.80;64.50;101563.09;5025477;28;20091;-74
2021/04/01 09:46:56;;;;;;;32.47;30.58;;;;;;;16.49;51.74;101559.28;5026727;28;20041;-73
2021/04/01 09:49:31;;;;;;;32.90;31.00;;;;;;;15.87;61.52;101557.69;5021561;28;20036;-73
2021/04/01 09:51:59;;;;;;;32.28;30.48;;;;;;;16.31;46.73;101555.75;5012911;28;20030;-73
2021/04/01 09:54:28;;;;;;;32.25;30.45;;;;;;;16.31;48.42;101548.56;5003385;28;20030;-73
2021/04/01 09:56:59;;;;;;;32.45;30.65;;;;;;;16.85;46.41;101551.41;4998447;28;20042;-73
2021/04/01 09:59:47;;;;;;;33.92;31.75;;;;;;;16.02;67.75;101550.91;4999995;28;20035;-73
2021/04/01 10:02:30;;;;;;;35.47;33.40;;;;;;;17.04;54.81;101547.66;5008156;28;20025;-73
2021/04/01 10:05:02;;;;;;;34.30;32.40;;;;;;;17.54;49.29;101536.53;5008417;28;20041;-73
2021/04/01 10:07:36;;;;;;;34.35;32.35;;;;;;;17.62;44.85;101538.88;5006679;28;20784;-73
2021/04/01 10:10:05;;;;;;;35.20;33.30;;;;;;;18.25;44.65;101531.97;5007837;28;20544;-73
2021/04/01 10:12:38;;;;;;;33.50;31.75;;;;;;;17.86;34.54;101530.88;5008399;28;20041;-73
2021/04/01 10:15:10;;;;;;;34.13;31.83;;;;;;;17.66;40.72;101531.19;4999306;28;20041;-74
2021/04/01 10:17:38;;;;;;;31.95;29.95;;;;;;;17.69;42.10;101527.22;5017954;28;20495;-73
2021/04/01 10:20:07;;;;;;;32.80;31.00;;;;;;;17.70;38.39;101523.47;5003479;28;20062;-75
2021/04/01 10:22:39;;;;;;;31.58;29.77;;;;;;;15.77;53.08;101520.69;5002800;28;20406;-73
2021/04/01 10:25:14;;;;;;;33.50;31.40;;;;;;;18.51;38.29;101522.53;5013635;28;20099;-73
2021/04/01 10:27:48;;;;;;;30.95;29.25;;;;;;;18.16;43.85;101511.09;5011240;28;20273;-73
2021/04/01 10:30:15;;;;;;;34.53;32.25;;;;;;;16.69;39.46;101513.41;5008142;28;20611;-74
2021/04/01 10:32:49;;;;;;;32.17;30.45;;;;;;;17.36;34.92;101513.28;5011251;28;20033;-73
2021/04/01 10:35:18;;;;;;;32.13;30.23;;;;;;;18.19;34.98;101508.72;5021965;28;20025;-74
2021/04/01 10:37:49;;;;;;;33.05;31.25;;;;;;;16.62;36.07;101509.22;5022926;28;20471;-74
2021/04/01 10:40:17;;;;;;;33.20;31.38;;;;;;;17.46;38.40;101504.66;5013487;28;20030;-74
2021/04/01 10:43:04;;;;;;;31.60;30.00;;;;;;;16.79;36.88;101493.31;5031026;28;20541;-73
2021/04/01 10:45:39;;;;;;;34.25;32.55;;;;;;;17.25;36.29;101499.88;5002063;28;20446;-73
2021/04/01 10:48:29;;;;;;;34.30;32.10;;;;;;;17.04;35.55;101491.28;5037418;28;20459;-73
2021/04/01 10:51:01;;;;;;;33.30;31.33;;;;;;;18.62;32.50;101490.47;5010058;28;20481;-73
2021/04/01 10:53:27;;;;;;;32.90;31.10;;;;;;;17.44;28.83;101479.91;5012809;28;20510;-73
2021/04/01 10:56:02;;;;;;;33.25;31.55;;;;;;;17.25;28.74;101484.56;5008317;28;20033;-74
2021/04/01 10:58:28;;;;;;;33.05;31.27;;;;;;;19.12;30.25;101478.97;5027238;28;20054;-74
2021/04/01 11:01:00;;;;;;;39.92;37.88;;;;;;;18.29;34.79;101475.84;5010504;28;20502;-74
2021/04/01 11:03:29;;;;;;;32.53;30.83;;;;;;;16.84;34.36;101475.50;5009571;28;20026;-74
2021/04/01 11:05:57;;;;;;;34.05;32.25;;;;;;;17.61;33.02;101466.59;5010225;28;20069;-73
2021/04/01 11:08:25;;;;;;;32.80;30.92;;;;;;;18.18;32.93;101458.69;5018169;28;20061;-74
2021/04/01 11:10:59;;;;;;;34.63;32.72;;;;;;;18.04;36.99;101455.47;5008655;28;20025;-74
2021/04/01 11:13:51;;;;;;;30.70;29.13;;;;;;;18.30;31.37;101447.91;5027532;28;20034;-73
2021/04/01 11:16:18;;;;;;;36.70;34.80;;;;;;;18.05;34.19;101446.34;5008031;28;20065;-73
2021/04/01 11:18:47;;;;;;;35.40;33.40;;;;;;;17.93;30.40;101445.56;5017396;28;20299;-73
2021/04/01 11:21:15;;;;;;;34.65;32.25;;;;;;;18.27;29.96;101443.81;5011664;28;20033;-73
2021/04/01 11:23:41;;;;;;;37.92;36.03;;;;;;;17.47;32.60;101439.16;5009605;28;20099;-73
2021/04/01 11:26:07;;;;;;;32.50;30.80;;;;;;;18.60;32.23;101431.50;5026053;28;20143;-73
2021/04/01 11:28:33;;;;;;;38.60;36.60;;;;;;;18.15;31.99;101434.16;5010848;28;20118;-73
2021/04/01 11:30:59;;;;;;;34.85;32.35;;;;;;;18.01;31.76;101425.56;5011152;28;20037;-73
2021/04/01 11:33:27;;;;;;;35.22;33.45;;;;;;;17.83;29.62;101426.53;5009290;28;20456;-73
2021/04/01 11:36:15;;;;;;;33.47;31.67;;;;;;;17.28;41.24;101421.56;5028160;28;20044;-74
2021/04/01 11:38:44;;;;;;;37.15;35.22;;;;;;;16.34;41.67;101413.25;5026065;28;20395;-73
2021/04/01 11:41:13;;;;;;;35.03;32.83;;;;;;;17.61;36.26;101421.75;5024656;28;20053;-73
2021/04/01 11:43:39;;;;;;;35.63;33.83;;;;;;;15.46;42.52;101417.13;5016559;28;20036;-73
2021/04/01 11:46:14;;;;;;;32.60;30.55;;;;;;;17.40;36.43;101417.81;5020532;28;20450;-74
2021/04/01 11:48:40;;;;;;;36.13;34.13;;;;;;;18.44;34.09;101419.66;5014101;28;20065;-74
2021/04/01 11:51:16;;;;;;;35.53;33.45;;;;;;;18.68;35.68;101409.59;5010115;28;20041;-73
2021/04/01 11:53:42;;;;;;;37.05;35.25;;;;;;;18.19;30.82;101414.63;5016126;28;20466;-73
2021/04/01 11:56:08;;;;;;;37.55;35.50;;;;;;;18.28;29.74;101410.50;5027287;28;20034;-73
2021/04/01 11:58:33;;;;;;;37.20;35.13;;;;;;;17.83;35.18;101402.34;5014321;28;20430;-73
2021/04/01 12:01:31;;;;;;;38.05;35.95;;;;;;;19.21;32.12;101394.03;5011411;28;20065;-73
2021/04/01 12:04:09;;;;;;;34.60;32.80;;;;;;;19.23;28.36;101395.41;5012896;28;20041;-74
2021/04/01 12:06:36;;;;;;;35.28;33.05;;;;;;;17.07;35.10;101394.22;5009289;28;20390;-74
2021/04/01 12:09:02;;;;;;;33.80;32.00;;;;;;;17.30;30.71;101382.66;5008833;28;20030;-74
2021/04/01 12:11:39;;;;;;;37.70;35.70;;;;;;;15.90;33.48;101383.94;5009126;28;20045;-75
2021/04/01 12:14:09;;;;;;;35.67;33.67;;;;;;;15.69;32.22;101379.03;5010742;28;20030;-73
2021/04/01 12:16:34;;;;;;;33.00;31.17;;;;;;;16.49;31.05;101376.13;5009797;28;20061;-73
2021/04/01 12:19:02;;;;;;;37.15;35.15;;;;;;;18.98;31.54;101368.94;5009977;28;20474;-73
2021/04/01 12:21:28;;;;;;;34.03;32.22;;;;;;;19.93;28.49;101370.75;5011581;28;20534;-73
2021/04/01 12:23:59;;;;;;;33.95;31.75;;;;;;;19.50;31.35;101362.41;5025046;28;20038;-73
2021/04/01 12:26:29;;;;;;;34.00;31.83;;;;;;;19.10;32.99;101352.69;5010515;28;20517;-74
2021/04/01 12:29:00;;;;;;;31.65;29.85;;;;;;;19.74;29.66;101348.72;5012378;28;20471;-74
2021/04/01 12:31:37;;;;;;;31.75;29.95;;;;;;;20.88;28.46;101346.81;5025213;28;20044;-73
2021/04/01 12:34:03;;;;;;;31.08;29.10;;;;;;;20.02;26.44;101347.66;5029049;28;20040;-74
2021/04/01 12:36:32;;;;;;;29.40;27.70;;;;;;;19.84;25.11;101346.94;5010604;28;20030;-74
2021/04/01 12:38:58;;;;;;;28.83;26.75;;;;;;;19.88;25.40;101342.69;4995875;28;20030;-73
2021/04/01 12:41:29;;;;;;;38.70;35.05;;;;;;;19.88;26.45;101340.00;5024175;28;20088;-74
2021/04/01 12:43:55;;;;;;;30.00;27.90;;;;;;;19.36;26.30;101337.69;5007392;28;20068;-74
2021/04/01 12:46:38;;;;;;;29.50;27.90;;;;;;;19.83;28.94;101333.72;5009691;28;20037;-73
2021/04/01 12:49:04;;;;;;;32.72;30.65;;;;;;;19.44;29.48;101337.25;5013051;28;20021;-73